Curtis, NE

7:36 PM CDT on July 01, 2015 (GMT -0500)
McCook Municipal | | Change Station
CLOSE
Current Station
Airport
Location: McCook,
Elevation: 2579 ft
Nearby Weather Stations

Elev 2579 ft 40.20 °N, 100.59 °W | Updated 43 minutes ago

Clear
Clear
92 °F
Feels Like 93 °F
N
7
Wind Variable Wind from East

Today
High -- | Low -- °F
--% Chance of Precip.
Yesterday
High -- | Low -- °F
Precip. -- in
6:14 AM 9:16 PM
Full, 100% visible
Pressure 29.81 in
Visibility 10.0 miles
Clouds Clear
Heat Index 93 °F
Dew Point 64 °F
Humidity 39%
Rainfall 0.00 in
Snow Depth Not available.
UV 2 out of 12
Pollen 5.70 out of 12
Air Quality Not available.
Flu Activity Not available.
METAR KMCK 012353Z AUTO 09006KT 10SM CLR 33/18 A2989 RMK AO2 SLP093 T03330178 10361 20333 56007

More Conditions Fewer Conditions

Pressure 29.81 in
Visibility 10.0 miles
Clouds Clear
Heat Index 93 °F
Dew Point 64 °F
Humidity 39%
Rainfall 0.00 in
Snow Depth Not available.
UV 2 out of 12
Pollen 5.70 out of 12
Air Quality Not available.
Flu Activity Not available.
METAR KMCK 012353Z AUTO 09006KT 10SM CLR 33/18 A2989 RMK AO2 SLP093 T03330178 10361 20333 56007

More Conditions Fewer Conditions

10-Day Weather Forecast

×

Almanac

Astronomy

Jul. 01, 2015 Rise Set
Actual Time
Civil Twilight
Nautical Twilight
Astronomical Twilight
Moon
Length of Visible Light
Length of Day
Tomorrow will be .
, % of the Moon is Illuminated

Today's Extremes

State Highs State Lows

Community

WunderPhotos

Upload Photos

1,834,355 photos uploaded!

WunderBlogs® & News

Nearby

Air Quality

  Air Quality AQ Index Pollutant
Not available.

Snow Depth

Station Depth Elevation

Earthquake Activity

City Distance Mag. Time & Date
Minimum magnitude displayed is 2.5.

Coastal Water Temperatures

Place Temperature

Stations

Nearby Weather Stations

Station Location Temp. Windchill Dew Point Humidity Wind Precip. Elev Updated Type